sensor_id;sensor_type;location;lat;lon;timestamp;temperature;humidity
12260;DHT22;6192;47.742;9.262;2022-09-24T00:01:37;13.90;99.90
12260;DHT22;6192;47.742;9.262;2022-09-24T00:04:08;14.20;99.90
12260;DHT22;6192;47.742;9.262;2022-09-24T00:06:40;14.30;99.90
12260;DHT22;6192;47.742;9.262;2022-09-24T00:09:08;14.30;99.90
12260;DHT22;6192;47.742;9.262;2022-09-24T00:11:35;14.30;99.90
12260;DHT22;6192;47.742;9.262;2022-09-24T00:14:02;14.20;99.90
12260;DHT22;6192;47.742;9.262;2022-09-24T00:16:29;14.10;99.90
12260;DHT22;6192;47.742;9.262;2022-09-24T00:19:00;14.20;99.90
12260;DHT22;6192;47.742;9.262;2022-09-24T00:21:33;14.20;99.90
12260;DHT22;6192;47.742;9.262;2022-09-24T00:24:06;14.00;99.90
12260;DHT22;6192;47.742;9.262;2022-09-24T00:26:34;13.90;99.90
12260;DHT22;6192;47.742;9.262;2022-09-24T00:29:22;14.00;99.90
12260;DHT22;6192;47.742;9.262;2022-09-24T00:31:51;14.00;99.90
12260;DHT22;6192;47.742;9.262;2022-09-24T00:34:18;14.00;99.90
12260;DHT22;6192;47.742;9.262;2022-09-24T00:36:45;14.00;99.90
12260;DHT22;6192;47.742;9.262;2022-09-24T00:39:13;14.00;99.90
12260;DHT22;6192;47.742;9.262;2022-09-24T00:41:41;14.20;99.90
12260;DHT22;6192;47.742;9.262;2022-09-24T00:52:43;14.10;99.90
12260;DHT22;6192;47.742;9.262;2022-09-24T00:55:13;14.10;99.90
12260;DHT22;6192;47.742;9.262;2022-09-24T00:57:41;14.00;99.90
12260;DHT22;6192;47.742;9.262;2022-09-24T01:00:09;13.90;99.90
12260;DHT22;6192;47.742;9.262;2022-09-24T01:02:38;13.90;99.90
12260;DHT22;6192;47.742;9.262;2022-09-24T01:05:08;14.00;99.90
12260;DHT22;6192;47.742;9.262;2022-09-24T01:07:35;14.00;99.90
12260;DHT22;6192;47.742;9.262;2022-09-24T01:10:03;13.90;99.90
12260;DHT22;6192;47.742;9.262;2022-09-24T01:17:57;13.90;99.90
12260;DHT22;6192;47.742;9.262;2022-09-24T01:24:04;13.90;99.90
12260;DHT22;6192;47.742;9.262;2022-09-24T01:27:23;14.00;99.90
12260;DHT22;6192;47.742;9.262;2022-09-24T01:32:13;13.80;99.90
12260;DHT22;6192;47.742;9.262;2022-09-24T01:34:48;13.70;99.90
12260;DHT22;6192;47.742;9.262;2022-09-24T01:37:18;13.70;99.90
12260;DHT22;6192;47.742;9.262;2022-09-24T01:39:48;13.80;99.90
12260;DHT22;6192;47.742;9.262;2022-09-24T01:42:18;13.80;99.90
12260;DHT22;6192;47.742;9.262;2022-09-24T01:44:47;13.80;99.90
12260;DHT22;6192;47.742;9.262;2022-09-24T01:47:22;13.80;99.90
12260;DHT22;6192;47.742;9.262;2022-09-24T01:49:56;13.80;99.90
12260;DHT22;6192;47.742;9.262;2022-09-24T01:52:28;13.80;99.90
12260;DHT22;6192;47.742;9.262;2022-09-24T01:55:00;13.80;99.90
12260;DHT22;6192;47.742;9.262;2022-09-24T01:57:32;13.90;99.90
12260;DHT22;6192;47.742;9.262;2022-09-24T02:00:05;13.90;99.90
12260;DHT22;6192;47.742;9.262;2022-09-24T02:02:58;14.00;99.90
12260;DHT22;6192;47.742;9.262;2022-09-24T02:05:37;13.90;99.90
12260;DHT22;6192;47.742;9.262;2022-09-24T02:08:28;13.80;99.90
12260;DHT22;6192;47.742;9.262;2022-09-24T02:11:05;13.50;99.90
12260;DHT22;6192;47.742;9.262;2022-09-24T02:13:36;13.40;99.90
12260;DHT22;6192;47.742;9.262;2022-09-24T02:16:08;13.30;99.90
12260;DHT22;6192;47.742;9.262;2022-09-24T02:18:39;13.30;99.90
12260;DHT22;6192;47.742;9.262;2022-09-24T02:21:11;13.50;99.90
12260;DHT22;6192;47.742;9.262;2022-09-24T02:23:43;13.50;99.90
12260;DHT22;6192;47.742;9.262;2022-09-24T02:26:11;13.50;99.90
12260;DHT22;6192;47.742;9.262;2022-09-24T02:28:38;13.50;99.90
12260;DHT22;6192;47.742;9.262;2022-09-24T02:31:12;13.50;99.90
12260;DHT22;6192;47.742;9.262;2022-09-24T02:33:43;13.60;99.90
12260;DHT22;6192;47.742;9.262;2022-09-24T02:36:30;13.80;99.90
12260;DHT22;6192;47.742;9.262;2022-09-24T02:38:57;13.80;99.90
12260;DHT22;6192;47.742;9.262;2022-09-24T02:41:25;13.90;99.90
12260;DHT22;6192;47.742;9.262;2022-09-24T02:43:53;13.80;99.90
12260;DHT22;6192;47.742;9.262;2022-09-24T02:46:19;13.70;99.90
12260;DHT22;6192;47.742;9.262;2022-09-24T02:48:46;13.80;99.90
12260;DHT22;6192;47.742;9.262;2022-09-24T02:51:13;13.80;99.90
12260;DHT22;6192;47.742;9.262;2022-09-24T02:53:40;13.80;99.90
12260;DHT22;6192;47.742;9.262;2022-09-24T02:56:07;13.90;99.90
12260;DHT22;6192;47.742;9.262;2022-09-24T02:58:34;13.90;99.90
12260;DHT22;6192;47.742;9.262;2022-09-24T03:01:04;13.90;99.90
12260;DHT22;6192;47.742;9.262;2022-09-24T03:03:31;13.90;99.90
12260;DHT22;6192;47.742;9.262;2022-09-24T03:05:58;13.90;99.90
12260;DHT22;6192;47.742;9.262;2022-09-24T03:08:25;14.00;99.90
12260;DHT22;6192;47.742;9.262;2022-09-24T03:10:53;14.00;99.90
12260;DHT22;6192;47.742;9.262;2022-09-24T03:13:22;14.00;99.90
12260;DHT22;6192;47.742;9.262;2022-09-24T03:15:49;13.90;99.90
12260;DHT22;6192;47.742;9.262;2022-09-24T03:18:16;13.90;99.90
12260;DHT22;6192;47.742;9.262;2022-09-24T03:20:52;13.90;99.90
12260;DHT22;6192;47.742;9.262;2022-09-24T03:23:19;13.90;99.90
12260;DHT22;6192;47.742;9.262;2022-09-24T03:25:46;14.00;99.90
12260;DHT22;6192;47.742;9.262;2022-09-24T03:28:13;13.80;99.90
12260;DHT22;6192;47.742;9.262;2022-09-24T03:30:40;13.70;99.90
12260;DHT22;6192;47.742;9.262;2022-09-24T03:33:27;13.60;99.90
12260;DHT22;6192;47.742;9.262;2022-09-24T03:36:00;13.70;99.90
12260;DHT22;6192;47.742;9.262;2022-09-24T03:38:28;13.70;99.90
12260;DHT22;6192;47.742;9.262;2022-09-24T03:40:56;13.90;99.90
12260;DHT22;6192;47.742;9.262;2022-09-24T03:43:24;14.00;99.90
12260;DHT22;6192;47.742;9.262;2022-09-24T03:45:51;14.10;99.90
12260;DHT22;6192;47.742;9.262;2022-09-24T03:48:20;14.10;99.90
12260;DHT22;6192;47.742;9.262;2022-09-24T03:50:48;14.20;99.90
12260;DHT22;6192;47.742;9.262;2022-09-24T03:53:16;14.20;99.90
12260;DHT22;6192;47.742;9.262;2022-09-24T03:55:52;14.00;99.90
12260;DHT22;6192;47.742;9.262;2022-09-24T03:58:19;14.00;99.90
12260;DHT22;6192;47.742;9.262;2022-09-24T04:00:46;13.90;99.90
12260;DHT22;6192;47.742;9.262;2022-09-24T04:03:13;13.90;99.90
12260;DHT22;6192;47.742;9.262;2022-09-24T04:05:41;13.90;99.90
12260;DHT22;6192;47.742;9.262;2022-09-24T04:08:08;13.80;99.90
12260;DHT22;6192;47.742;9.262;2022-09-24T04:10:35;13.90;99.90
12260;DHT22;6192;47.742;9.262;2022-09-24T04:13:02;13.70;99.90
12260;DHT22;6192;47.742;9.262;2022-09-24T04:15:29;13.80;99.90
12260;DHT22;6192;47.742;9.262;2022-09-24T04:17:57;13.80;99.90
12260;DHT22;6192;47.742;9.262;2022-09-24T04:20:26;14.00;99.90
12260;DHT22;6192;47.742;9.262;2022-09-24T04:22:55;13.80;99.90
12260;DHT22;6192;47.742;9.262;2022-09-24T04:25:25;13.90;99.90
12260;DHT22;6192;47.742;9.262;2022-09-24T04:27:58;13.80;99.90
12260;DHT22;6192;47.742;9.262;2022-09-24T04:30:27;13.90;99.90
12260;DHT22;6192;47.742;9.262;2022-09-24T04:32:54;13.80;99.90
12260;DHT22;6192;47.742;9.262;2022-09-24T04:35:22;13.70;99.90
12260;DHT22;6192;47.742;9.262;2022-09-24T04:37:50;13.80;99.90
12260;DHT22;6192;47.742;9.262;2022-09-24T04:40:17;13.80;99.90
12260;DHT22;6192;47.742;9.262;2022-09-24T04:42:44;13.80;99.90
12260;DHT22;6192;47.742;9.262;2022-09-24T04:45:15;13.80;99.90
12260;DHT22;6192;47.742;9.262;2022-09-24T04:47:48;13.60;99.90
12260;DHT22;6192;47.742;9.262;2022-09-24T04:50:28;13.70;99.90
12260;DHT22;6192;47.742;9.262;2022-09-24T04:52:59;13.70;99.90
12260;DHT22;6192;47.742;9.262;2022-09-24T04:55:27;13.80;99.90
12260;DHT22;6192;47.742;9.262;2022-09-24T04:57:55;13.70;99.90
12260;DHT22;6192;47.742;9.262;2022-09-24T05:00:23;13.50;99.90
12260;DHT22;6192;47.742;9.262;2022-09-24T05:02:58;13.40;99.90
12260;DHT22;6192;47.742;9.262;2022-09-24T05:05:26;13.60;99.90
12260;DHT22;6192;47.742;9.262;2022-09-24T05:07:54;13.70;99.90
12260;DHT22;6192;47.742;9.262;2022-09-24T05:10:23;13.80;99.90
12260;DHT22;6192;47.742;9.262;2022-09-24T05:12:51;13.90;99.90
12260;DHT22;6192;47.742;9.262;2022-09-24T05:15:18;14.00;99.90
12260;DHT22;6192;47.742;9.262;2022-09-24T05:17:46;14.00;99.90
12260;DHT22;6192;47.742;9.262;2022-09-24T05:20:14;13.90;99.90
12260;DHT22;6192;47.742;9.262;2022-09-24T05:22:44;14.00;99.90
12260;DHT22;6192;47.742;9.262;2022-09-24T05:25:12;14.00;99.90
12260;DHT22;6192;47.742;9.262;2022-09-24T05:27:51;14.00;99.90
12260;DHT22;6192;47.742;9.262;2022-09-24T05:30:19;14.00;99.90
12260;DHT22;6192;47.742;9.262;2022-09-24T05:32:48;14.00;99.90
12260;DHT22;6192;47.742;9.262;2022-09-24T05:35:22;14.00;99.90
12260;DHT22;6192;47.742;9.262;2022-09-24T05:37:50;14.00;99.90
12260;DHT22;6192;47.742;9.262;2022-09-24T05:40:20;14.00;99.90
12260;DHT22;6192;47.742;9.262;2022-09-24T05:43:05;13.90;99.90
12260;DHT22;6192;47.742;9.262;2022-09-24T05:45:32;13.80;99.90
12260;DHT22;6192;47.742;9.262;2022-09-24T05:48:00;13.70;99.90
12260;DHT22;6192;47.742;9.262;2022-09-24T05:50:27;13.70;99.90
12260;DHT22;6192;47.742;9.262;2022-09-24T05:52:54;13.70;99.90
12260;DHT22;6192;47.742;9.262;2022-09-24T05:55:21;13.80;99.90
12260;DHT22;6192;47.742;9.262;2022-09-24T05:57:48;13.80;99.90
12260;DHT22;6192;47.742;9.262;2022-09-24T06:00:15;13.80;99.90
12260;DHT22;6192;47.742;9.262;2022-09-24T06:02:42;13.70;99.90
12260;DHT22;6192;47.742;9.262;2022-09-24T06:05:10;13.70;99.90
12260;DHT22;6192;47.742;9.262;2022-09-24T06:07:37;13.60;99.90
12260;DHT22;6192;47.742;9.262;2022-09-24T06:10:05;13.60;99.90
12260;DHT22;6192;47.742;9.262;2022-09-24T06:12:33;13.60;99.90
12260;DHT22;6192;47.742;9.262;2022-09-24T06:15:01;13.70;99.90
12260;DHT22;6192;47.742;9.262;2022-09-24T06:17:28;13.60;99.90
12260;DHT22;6192;47.742;9.262;2022-09-24T06:19:55;13.70;99.90
12260;DHT22;6192;47.742;9.262;2022-09-24T06:22:23;13.70;99.90
12260;DHT22;6192;47.742;9.262;2022-09-24T06:24:54;13.70;99.90
12260;DHT22;6192;47.742;9.262;2022-09-24T06:27:21;13.70;99.90
12260;DHT22;6192;47.742;9.262;2022-09-24T06:29:49;13.70;99.90
12260;DHT22;6192;47.742;9.262;2022-09-24T06:32:16;13.60;99.90
12260;DHT22;6192;47.742;9.262;2022-09-24T06:34:44;13.60;99.90
12260;DHT22;6192;47.742;9.262;2022-09-24T06:37:11;13.70;99.90
12260;DHT22;6192;47.742;9.262;2022-09-24T06:39:38;13.70;99.90
12260;DHT22;6192;47.742;9.262;2022-09-24T06:42:05;13.60;99.90
12260;DHT22;6192;47.742;9.262;2022-09-24T06:44:33;13.70;99.90
12260;DHT22;6192;47.742;9.262;2022-09-24T06:47:00;13.70;99.90
12260;DHT22;6192;47.742;9.262;2022-09-24T06:49:27;13.60;99.90
12260;DHT22;6192;47.742;9.262;2022-09-24T06:52:01;13.60;99.90
12260;DHT22;6192;47.742;9.262;2022-09-24T06:54:27;13.50;99.90
12260;DHT22;6192;47.742;9.262;2022-09-24T06:56:54;13.60;99.90
12260;DHT22;6192;47.742;9.262;2022-09-24T06:59:21;13.50;99.90
12260;DHT22;6192;47.742;9.262;2022-09-24T07:01:48;13.50;99.90
12260;DHT22;6192;47.742;9.262;2022-09-24T07:04:15;13.40;99.90
12260;DHT22;6192;47.742;9.262;2022-09-24T07:06:42;13.40;99.90
12260;DHT22;6192;47.742;9.262;2022-09-24T07:09:27;13.50;99.90
12260;DHT22;6192;47.742;9.262;2022-09-24T07:11:54;13.50;99.90
12260;DHT22;6192;47.742;9.262;2022-09-24T07:14:23;13.50;99.90
12260;DHT22;6192;47.742;9.262;2022-09-24T07:16:50;13.50;99.90
12260;DHT22;6192;47.742;9.262;2022-09-24T07:19:19;13.40;99.90
12260;DHT22;6192;47.742;9.262;2022-09-24T07:21:46;13.40;99.90
12260;DHT22;6192;47.742;9.262;2022-09-24T07:24:13;13.50;99.90
12260;DHT22;6192;47.742;9.262;2022-09-24T07:26:40;13.50;99.90
12260;DHT22;6192;47.742;9.262;2022-09-24T07:29:06;13.50;99.90
12260;DHT22;6192;47.742;9.262;2022-09-24T07:31:33;13.60;99.90
12260;DHT22;6192;47.742;9.262;2022-09-24T07:34:02;13.70;99.90
12260;DHT22;6192;47.742;9.262;2022-09-24T07:36:29;13.70;99.90
12260;DHT22;6192;47.742;9.262;2022-09-24T07:38:57;13.80;99.90
12260;DHT22;6192;47.742;9.262;2022-09-24T07:41:24;13.80;99.90
12260;DHT22;6192;47.742;9.262;2022-09-24T07:43:51;13.70;99.90
12260;DHT22;6192;47.742;9.262;2022-09-24T07:46:20;13.80;99.90
12260;DHT22;6192;47.742;9.262;2022-09-24T07:48:47;13.80;99.90
12260;DHT22;6192;47.742;9.262;2022-09-24T07:51:14;13.80;99.90
12260;DHT22;6192;47.742;9.262;2022-09-24T07:53:41;13.80;99.90
12260;DHT22;6192;47.742;9.262;2022-09-24T07:56:08;13.90;99.90
12260;DHT22;6192;47.742;9.262;2022-09-24T07:58:35;13.90;99.90
12260;DHT22;6192;47.742;9.262;2022-09-24T08:01:02;14.00;99.90
12260;DHT22;6192;47.742;9.262;2022-09-24T08:03:29;14.00;99.90
12260;DHT22;6192;47.742;9.262;2022-09-24T08:05:58;14.00;99.90
12260;DHT22;6192;47.742;9.262;2022-09-24T08:08:27;14.00;99.90
12260;DHT22;6192;47.742;9.262;2022-09-24T08:10:54;14.00;99.90
12260;DHT22;6192;47.742;9.262;2022-09-24T08:13:21;14.00;99.90
12260;DHT22;6192;47.742;9.262;2022-09-24T08:16:00;13.90;99.90
12260;DHT22;6192;47.742;9.262;2022-09-24T08:18:28;14.00;99.90
12260;DHT22;6192;47.742;9.262;2022-09-24T08:21:01;14.00;99.90
12260;DHT22;6192;47.742;9.262;2022-09-24T08:23:28;13.90;99.90
12260;DHT22;6192;47.742;9.262;2022-09-24T08:25:56;13.90;99.90
12260;DHT22;6192;47.742;9.262;2022-09-24T08:28:23;13.80;99.90
12260;DHT22;6192;47.742;9.262;2022-09-24T08:30:50;13.90;99.90
12260;DHT22;6192;47.742;9.262;2022-09-24T08:33:17;13.80;99.90
12260;DHT22;6192;47.742;9.262;2022-09-24T08:35:44;13.90;99.90
12260;DHT22;6192;47.742;9.262;2022-09-24T08:38:11;13.90;99.90
12260;DHT22;6192;47.742;9.262;2022-09-24T08:40:44;13.90;99.90
12260;DHT22;6192;47.742;9.262;2022-09-24T08:45:52;13.90;99.90
12260;DHT22;6192;47.742;9.262;2022-09-24T08:48:43;14.00;99.90
12260;DHT22;6192;47.742;9.262;2022-09-24T08:51:17;13.90;99.90
12260;DHT22;6192;47.742;9.262;2022-09-24T08:53:55;14.00;99.90
12260;DHT22;6192;47.742;9.262;2022-09-24T08:56:28;14.00;99.90
12260;DHT22;6192;47.742;9.262;2022-09-24T08:59:00;14.00;99.90
12260;DHT22;6192;47.742;9.262;2022-09-24T09:01:51;14.00;99.90
12260;DHT22;6192;47.742;9.262;2022-09-24T09:09:51;14.10;99.90
12260;DHT22;6192;47.742;9.262;2022-09-24T09:12:24;14.00;99.90
12260;DHT22;6192;47.742;9.262;2022-09-24T09:18:01;14.00;99.90
12260;DHT22;6192;47.742;9.262;2022-09-24T09:20:44;14.20;99.90
12260;DHT22;6192;47.742;9.262;2022-09-24T09:23:21;14.20;99.90
12260;DHT22;6192;47.742;9.262;2022-09-24T09:25:56;14.20;99.90
12260;DHT22;6192;47.742;9.262;2022-09-24T09:28:25;14.20;99.90
12260;DHT22;6192;47.742;9.262;2022-09-24T09:31:23;14.20;99.90
12260;DHT22;6192;47.742;9.262;2022-09-24T09:39:44;14.20;99.90
12260;DHT22;6192;47.742;9.262;2022-09-24T09:43:02;14.30;99.90
12260;DHT22;6192;47.742;9.262;2022-09-24T09:48:25;14.30;99.90
12260;DHT22;6192;47.742;9.262;2022-09-24T09:51:04;14.10;99.90
12260;DHT22;6192;47.742;9.262;2022-09-24T09:53:33;14.00;99.90
12260;DHT22;6192;47.742;9.262;2022-09-24T09:56:05;14.10;99.90
12260;DHT22;6192;47.742;9.262;2022-09-24T09:58:35;14.20;99.90
12260;DHT22;6192;47.742;9.262;2022-09-24T10:01:12;14.30;99.90
12260;DHT22;6192;47.742;9.262;2022-09-24T10:06:12;14.30;99.90
12260;DHT22;6192;47.742;9.262;2022-09-24T10:08:39;14.30;99.90
12260;DHT22;6192;47.742;9.262;2022-09-24T10:11:13;14.30;99.90
12260;DHT22;6192;47.742;9.262;2022-09-24T10:13:41;14.30;99.90
12260;DHT22;6192;47.742;9.262;2022-09-24T10:16:09;14.30;99.90
12260;DHT22;6192;47.742;9.262;2022-09-24T10:18:46;14.30;99.90
12260;DHT22;6192;47.742;9.262;2022-09-24T10:21:25;14.40;99.90
12260;DHT22;6192;47.742;9.262;2022-09-24T10:23:59;14.40;99.90
12260;DHT22;6192;47.742;9.262;2022-09-24T10:26:39;14.40;99.90
12260;DHT22;6192;47.742;9.262;2022-09-24T10:29:21;14.50;99.90
12260;DHT22;6192;47.742;9.262;2022-09-24T10:32:18;14.60;99.90
12260;DHT22;6192;47.742;9.262;2022-09-24T10:35:00;14.50;99.90
12260;DHT22;6192;47.742;9.262;2022-09-24T10:37:28;14.60;99.90
12260;DHT22;6192;47.742;9.262;2022-09-24T10:39:57;14.60;99.90
12260;DHT22;6192;47.742;9.262;2022-09-24T10:42:26;14.60;99.90
12260;DHT22;6192;47.742;9.262;2022-09-24T10:44:57;14.70;99.90
12260;DHT22;6192;47.742;9.262;2022-09-24T10:47:47;14.60;99.90
12260;DHT22;6192;47.742;9.262;2022-09-24T10:50:30;14.50;99.90
12260;DHT22;6192;47.742;9.262;2022-09-24T10:53:13;14.40;99.90
12260;DHT22;6192;47.742;9.262;2022-09-24T10:58:40;14.60;99.90
12260;DHT22;6192;47.742;9.262;2022-09-24T11:09:44;14.50;99.90
12260;DHT22;6192;47.742;9.262;2022-09-24T11:12:18;14.40;99.90
12260;DHT22;6192;47.742;9.262;2022-09-24T11:17:36;14.70;99.90
12260;DHT22;6192;47.742;9.262;2022-09-24T11:29:51;14.80;99.90
12260;DHT22;6192;47.742;9.262;2022-09-24T11:46:51;14.60;99.90
12260;DHT22;6192;47.742;9.262;2022-09-24T11:57:39;14.60;99.90
12260;DHT22;6192;47.742;9.262;2022-09-24T12:00:15;14.60;99.90
12260;DHT22;6192;47.742;9.262;2022-09-24T12:06:01;14.80;99.90
12260;DHT22;6192;47.742;9.262;2022-09-24T12:08:57;14.80;99.90
12260;DHT22;6192;47.742;9.262;2022-09-24T12:11:38;14.70;99.90
12260;DHT22;6192;47.742;9.262;2022-09-24T12:14:23;14.70;99.90
12260;DHT22;6192;47.742;9.262;2022-09-24T12:17:00;14.60;99.90
12260;DHT22;6192;47.742;9.262;2022-09-24T12:19:52;14.70;99.90
12260;DHT22;6192;47.742;9.262;2022-09-24T12:22:22;14.70;99.90
12260;DHT22;6192;47.742;9.262;2022-09-24T12:24:52;14.70;99.90
12260;DHT22;6192;47.742;9.262;2022-09-24T12:27:30;14.80;99.90
12260;DHT22;6192;47.742;9.262;2022-09-24T12:33:14;14.90;99.90
12260;DHT22;6192;47.742;9.262;2022-09-24T12:36:11;15.00;99.90
12260;DHT22;6192;47.742;9.262;2022-09-24T12:38:51;15.00;99.90
12260;DHT22;6192;47.742;9.262;2022-09-24T12:44:10;15.00;99.90
12260;DHT22;6192;47.742;9.262;2022-09-24T12:46:50;15.00;99.90
12260;DHT22;6192;47.742;9.262;2022-09-24T12:51:52;15.10;99.90
12260;DHT22;6192;47.742;9.262;2022-09-24T12:54:32;15.20;99.90
12260;DHT22;6192;47.742;9.262;2022-09-24T12:57:07;15.10;99.90
12260;DHT22;6192;47.742;9.262;2022-09-24T12:59:50;15.00;99.90
12260;DHT22;6192;47.742;9.262;2022-09-24T13:02:22;15.00;99.90
12260;DHT22;6192;47.742;9.262;2022-09-24T13:08:01;15.10;99.90
12260;DHT22;6192;47.742;9.262;2022-09-24T13:10:33;15.10;99.90
12260;DHT22;6192;47.742;9.262;2022-09-24T13:13:20;15.10;99.90
12260;DHT22;6192;47.742;9.262;2022-09-24T13:18:25;15.30;99.90
12260;DHT22;6192;47.742;9.262;2022-09-24T13:21:07;15.30;99.90
12260;DHT22;6192;47.742;9.262;2022-09-24T13:26:06;15.30;99.90
12260;DHT22;6192;47.742;9.262;2022-09-24T13:29:02;15.30;99.90
12260;DHT22;6192;47.742;9.262;2022-09-24T13:31:58;15.20;99.90
12260;DHT22;6192;47.742;9.262;2022-09-24T13:34:29;15.20;99.90
12260;DHT22;6192;47.742;9.262;2022-09-24T13:37:40;15.20;99.90
12260;DHT22;6192;47.742;9.262;2022-09-24T13:40:20;15.00;99.90
12260;DHT22;6192;47.742;9.262;2022-09-24T13:43:01;15.00;99.90
12260;DHT22;6192;47.742;9.262;2022-09-24T13:45:30;15.00;99.90
12260;DHT22;6192;47.742;9.262;2022-09-24T13:48:02;15.10;99.90
12260;DHT22;6192;47.742;9.262;2022-09-24T13:50:38;15.10;99.90
12260;DHT22;6192;47.742;9.262;2022-09-24T13:53:16;15.00;99.90
12260;DHT22;6192;47.742;9.262;2022-09-24T13:58:29;14.90;99.90
12260;DHT22;6192;47.742;9.262;2022-09-24T14:01:24;15.00;99.90
12260;DHT22;6192;47.742;9.262;2022-09-24T14:03:58;15.00;99.90
12260;DHT22;6192;47.742;9.262;2022-09-24T14:06:47;15.10;99.90
12260;DHT22;6192;47.742;9.262;2022-09-24T14:11:50;15.20;99.90
12260;DHT22;6192;47.742;9.262;2022-09-24T14:14:20;15.20;99.90
12260;DHT22;6192;47.742;9.262;2022-09-24T14:16:47;15.10;99.90
12260;DHT22;6192;47.742;9.262;2022-09-24T14:19:15;15.00;99.90
12260;DHT22;6192;47.742;9.262;2022-09-24T14:21:53;14.90;99.90
12260;DHT22;6192;47.742;9.262;2022-09-24T14:24:26;15.00;99.90
12260;DHT22;6192;47.742;9.262;2022-09-24T14:29:43;15.00;99.90
12260;DHT22;6192;47.742;9.262;2022-09-24T14:32:36;15.00;99.90
12260;DHT22;6192;47.742;9.262;2022-09-24T14:37:40;15.00;99.90
12260;DHT22;6192;47.742;9.262;2022-09-24T14:40:17;15.00;99.90
12260;DHT22;6192;47.742;9.262;2022-09-24T14:42:47;15.00;99.90
12260;DHT22;6192;47.742;9.262;2022-09-24T14:45:20;15.00;99.90
12260;DHT22;6192;47.742;9.262;2022-09-24T14:48:01;15.00;99.90
12260;DHT22;6192;47.742;9.262;2022-09-24T14:52:56;15.10;99.90
12260;DHT22;6192;47.742;9.262;2022-09-24T14:55:36;14.90;99.90
12260;DHT22;6192;47.742;9.262;2022-09-24T14:58:03;15.10;99.90
12260;DHT22;6192;47.742;9.262;2022-09-24T15:00:36;15.20;99.90
12260;DHT22;6192;47.742;9.262;2022-09-24T15:03:14;15.10;99.90
12260;DHT22;6192;47.742;9.262;2022-09-24T15:05:42;15.00;99.90
12260;DHT22;6192;47.742;9.262;2022-09-24T15:08:23;15.00;99.90
12260;DHT22;6192;47.742;9.262;2022-09-24T15:10:58;15.00;99.90
12260;DHT22;6192;47.742;9.262;2022-09-24T15:13:35;15.00;99.90
12260;DHT22;6192;47.742;9.262;2022-09-24T15:16:19;14.90;99.90
12260;DHT22;6192;47.742;9.262;2022-09-24T15:21:33;15.10;99.90
12260;DHT22;6192;47.742;9.262;2022-09-24T15:24:01;15.10;99.90
12260;DHT22;6192;47.742;9.262;2022-09-24T15:26:30;15.10;99.90
12260;DHT22;6192;47.742;9.262;2022-09-24T15:28:58;15.20;99.90
12260;DHT22;6192;47.742;9.262;2022-09-24T15:31:26;15.20;99.90
12260;DHT22;6192;47.742;9.262;2022-09-24T15:33:53;15.20;99.90
12260;DHT22;6192;47.742;9.262;2022-09-24T15:36:22;15.10;99.90
12260;DHT22;6192;47.742;9.262;2022-09-24T15:38:50;15.00;99.90
12260;DHT22;6192;47.742;9.262;2022-09-24T15:41:18;15.00;99.90
12260;DHT22;6192;47.742;9.262;2022-09-24T15:43:45;15.00;99.90
12260;DHT22;6192;47.742;9.262;2022-09-24T15:46:12;14.80;99.90
12260;DHT22;6192;47.742;9.262;2022-09-24T15:48:39;14.80;99.90
12260;DHT22;6192;47.742;9.262;2022-09-24T15:51:09;14.90;99.90
12260;DHT22;6192;47.742;9.262;2022-09-24T15:53:41;14.90;99.90
12260;DHT22;6192;47.742;9.262;2022-09-24T15:56:08;14.90;99.90
12260;DHT22;6192;47.742;9.262;2022-09-24T15:58:35;14.80;99.90
12260;DHT22;6192;47.742;9.262;2022-09-24T16:01:02;14.80;99.90
12260;DHT22;6192;47.742;9.262;2022-09-24T16:03:30;14.80;99.90
12260;DHT22;6192;47.742;9.262;2022-09-24T16:05:58;14.80;99.90
12260;DHT22;6192;47.742;9.262;2022-09-24T16:08:25;14.80;99.90
12260;DHT22;6192;47.742;9.262;2022-09-24T16:10:53;14.80;99.90
12260;DHT22;6192;47.742;9.262;2022-09-24T16:13:20;14.80;99.90
12260;DHT22;6192;47.742;9.262;2022-09-24T16:15:52;14.80;99.90
12260;DHT22;6192;47.742;9.262;2022-09-24T16:18:18;14.90;99.90
12260;DHT22;6192;47.742;9.262;2022-09-24T16:20:47;14.90;99.90
12260;DHT22;6192;47.742;9.262;2022-09-24T16:23:16;15.00;99.90
12260;DHT22;6192;47.742;9.262;2022-09-24T16:25:57;15.00;99.90
12260;DHT22;6192;47.742;9.262;2022-09-24T16:28:25;14.90;99.90
12260;DHT22;6192;47.742;9.262;2022-09-24T16:30:53;15.00;99.90
12260;DHT22;6192;47.742;9.262;2022-09-24T16:33:20;14.90;99.90
12260;DHT22;6192;47.742;9.262;2022-09-24T16:35:47;14.90;99.90
12260;DHT22;6192;47.742;9.262;2022-09-24T16:38:14;14.80;99.90
12260;DHT22;6192;47.742;9.262;2022-09-24T16:40:48;14.80;99.90
12260;DHT22;6192;47.742;9.262;2022-09-24T16:43:17;14.70;99.90
12260;DHT22;6192;47.742;9.262;2022-09-24T16:45:44;14.70;99.90
12260;DHT22;6192;47.742;9.262;2022-09-24T16:48:11;14.70;99.90
12260;DHT22;6192;47.742;9.262;2022-09-24T16:53:10;14.60;99.90
12260;DHT22;6192;47.742;9.262;2022-09-24T16:55:37;14.60;99.90
12260;DHT22;6192;47.742;9.262;2022-09-24T16:58:04;14.60;99.90
12260;DHT22;6192;47.742;9.262;2022-09-24T17:00:31;14.70;99.90
12260;DHT22;6192;47.742;9.262;2022-09-24T17:02:58;14.70;99.90
12260;DHT22;6192;47.742;9.262;2022-09-24T17:05:25;14.50;99.90
12260;DHT22;6192;47.742;9.262;2022-09-24T17:07:52;14.60;99.90
12260;DHT22;6192;47.742;9.262;2022-09-24T17:10:19;14.50;99.90
12260;DHT22;6192;47.742;9.262;2022-09-24T17:12:50;14.30;99.90
12260;DHT22;6192;47.742;9.262;2022-09-24T17:15:18;14.30;99.90
12260;DHT22;6192;47.742;9.262;2022-09-24T17:17:47;14.40;99.90
12260;DHT22;6192;47.742;9.262;2022-09-24T17:20:17;14.20;99.90
12260;DHT22;6192;47.742;9.262;2022-09-24T17:22:45;14.30;99.90
12260;DHT22;6192;47.742;9.262;2022-09-24T17:25:13;14.30;99.90
12260;DHT22;6192;47.742;9.262;2022-09-24T17:27:40;14.30;99.90
12260;DHT22;6192;47.742;9.262;2022-09-24T17:30:08;14.30;99.90
12260;DHT22;6192;47.742;9.262;2022-09-24T17:32:36;14.30;99.90
12260;DHT22;6192;47.742;9.262;2022-09-24T17:35:04;14.20;99.90
12260;DHT22;6192;47.742;9.262;2022-09-24T17:37:31;14.10;99.90
12260;DHT22;6192;47.742;9.262;2022-09-24T17:39:58;14.20;99.90
12260;DHT22;6192;47.742;9.262;2022-09-24T17:42:25;14.30;99.90
12260;DHT22;6192;47.742;9.262;2022-09-24T17:44:52;14.20;99.90
12260;DHT22;6192;47.742;9.262;2022-09-24T17:47:19;14.20;99.90
12260;DHT22;6192;47.742;9.262;2022-09-24T17:49:46;14.20;99.90
12260;DHT22;6192;47.742;9.262;2022-09-24T17:52:13;14.20;99.90
12260;DHT22;6192;47.742;9.262;2022-09-24T17:54:39;14.20;99.90
12260;DHT22;6192;47.742;9.262;2022-09-24T17:57:06;14.30;99.90
12260;DHT22;6192;47.742;9.262;2022-09-24T17:59:33;14.20;99.90
12260;DHT22;6192;47.742;9.262;2022-09-24T18:02:00;14.10;99.90
12260;DHT22;6192;47.742;9.262;2022-09-24T18:04:27;14.10;99.90
12260;DHT22;6192;47.742;9.262;2022-09-24T18:06:56;14.00;99.90
12260;DHT22;6192;47.742;9.262;2022-09-24T18:09:23;14.00;99.90
12260;DHT22;6192;47.742;9.262;2022-09-24T18:11:51;14.00;99.90
12260;DHT22;6192;47.742;9.262;2022-09-24T18:14:20;14.00;99.90
12260;DHT22;6192;47.742;9.262;2022-09-24T18:16:48;14.00;99.90
12260;DHT22;6192;47.742;9.262;2022-09-24T18:19:16;14.20;99.90